Time;durP1;ratioP1;P1;durP2;ratioP2;P2;SDS_P1;SDS_P2;PMS_P1;PMS_P2;Temp;Humidity;BMP_temperature;BMP_pressure;BME280_temperature;BME280_humidity;BME280_pressure;Samples;Min_cycle;Max_cycle;Signal;HPM_P1;HPM_P2
2022/07/14 00:00:16;;;;;;;5.22;2.40;;;;;;;23.12;66.36;101300.59;4943326;29;20318;-76
2022/07/14 00:03:02;;;;;;;5.75;2.40;;;;;;;22.88;67.65;101308.28;4956472;29;20517;-77
2022/07/14 00:05:47;;;;;;;3.97;2.35;;;;;;;23.04;66.70;101305.56;4956102;29;20159;-77
2022/07/14 00:08:33;;;;;;;3.08;2.10;;;;;;;23.25;65.30;101310.50;4956159;29;20067;-76
2022/07/14 00:11:19;;;;;;;4.90;2.30;;;;;;;23.05;67.61;101302.78;4956368;29;20480;-77
2022/07/14 00:14:05;;;;;;;3.28;2.20;;;;;;;22.82;69.07;101302.41;4956656;28;20183;-78
2022/07/14 00:16:51;;;;;;;3.92;2.28;;;;;;;22.70;69.00;101306.66;4956210;29;20035;-77
2022/07/14 00:19:36;;;;;;;3.25;2.28;;;;;;;22.85;69.00;101318.25;4955753;29;20050;-76
2022/07/14 00:22:22;;;;;;;9.43;2.30;;;;;;;22.76;69.88;101314.34;4942746;29;20027;-77
2022/07/14 00:25:08;;;;;;;5.53;2.20;;;;;;;22.69;71.56;101304.94;4955268;28;20027;-77
2022/07/14 00:27:54;;;;;;;5.45;2.15;;;;;;;22.91;70.02;101297.38;4955814;29;20050;-77
2022/07/14 00:30:40;;;;;;;6.65;2.40;;;;;;;22.76;70.63;101302.78;4955821;29;20343;-76
2022/07/14 00:33:26;;;;;;;5.20;2.38;;;;;;;22.84;70.35;101304.06;4957070;28;20035;-77
2022/07/14 00:36:12;;;;;;;6.18;2.42;;;;;;;22.92;70.09;101299.13;4959601;29;20421;-77
2022/07/14 00:38:58;;;;;;;3.17;2.60;;;;;;;23.07;69.15;101305.38;4960550;29;20027;-76
2022/07/14 00:41:43;;;;;;;3.42;2.65;;;;;;;22.74;69.52;101305.53;4960098;29;20414;-77
2022/07/14 00:44:29;;;;;;;7.32;3.00;;;;;;;22.51;70.59;101297.97;4959857;28;20037;-76
2022/07/14 00:47:15;;;;;;;5.90;3.30;;;;;;;22.64;70.19;101295.47;4959825;29;20339;-76
2022/07/14 00:50:01;;;;;;;7.22;3.45;;;;;;;22.61;70.18;101292.97;4960455;29;20086;-76
2022/07/14 00:52:49;;;;;;;3.90;2.80;;;;;;;22.50;71.63;101296.25;4959121;29;20471;-78
2022/07/14 00:55:36;;;;;;;3.97;2.55;;;;;;;22.06;72.94;101297.03;4960360;29;20026;-77
2022/07/14 00:58:22;;;;;;;7.60;2.63;;;;;;;21.96;72.99;101302.00;4958631;29;20042;-77
2022/07/14 01:01:07;;;;;;;6.85;2.78;;;;;;;22.01;73.03;101294.59;4959921;29;20108;-77
2022/07/14 01:03:53;;;;;;;7.90;2.92;;;;;;;21.71;74.72;101292.75;4959445;28;20023;-76
2022/07/14 01:06:39;;;;;;;6.78;2.72;;;;;;;21.71;75.05;101296.31;4960139;29;20031;-76
2022/07/14 01:09:25;;;;;;;5.53;2.70;;;;;;;21.82;74.65;101298.38;4959902;29;20023;-77
2022/07/14 01:12:11;;;;;;;8.00;2.70;;;;;;;21.60;75.89;101295.09;4959134;29;20023;-76
2022/07/14 01:14:57;;;;;;;3.47;2.20;;;;;;;21.66;75.26;101297.47;4958943;28;20108;-76
2022/07/14 01:17:44;;;;;;;6.35;2.75;;;;;;;21.73;75.46;101296.19;4945843;29;20106;-77
2022/07/14 01:20:30;;;;;;;3.90;1.90;;;;;;;21.56;76.71;101291.75;4959001;29;20023;-77
2022/07/14 01:23:16;;;;;;;6.60;1.95;;;;;;;21.56;77.68;101290.88;4944423;28;20027;-76
2022/07/14 01:26:01;;;;;;;6.93;1.80;;;;;;;21.67;76.97;101289.38;4959497;29;20149;-76
2022/07/14 01:28:47;;;;;;;4.72;1.90;;;;;;;21.54;78.84;101292.78;4958587;29;20030;-76
2022/07/14 01:31:33;;;;;;;4.43;2.78;;;;;;;21.30;82.29;101294.06;4959339;29;20079;-77
2022/07/14 01:34:19;;;;;;;5.80;2.28;;;;;;;21.43;81.47;101288.03;4959010;28;20037;-76
2022/07/14 01:37:05;;;;;;;2.42;1.83;;;;;;;21.70;79.87;101291.88;4945688;29;20436;-77
2022/07/14 01:39:50;;;;;;;5.20;2.30;;;;;;;21.40;82.82;101295.28;4958816;29;20027;-77
2022/07/14 01:42:36;;;;;;;4.88;2.30;;;;;;;21.55;81.43;101299.81;4945836;29;20557;-76
2022/07/14 01:45:22;;;;;;;6.00;2.30;;;;;;;21.35;82.94;101300.88;4957575;28;20031;-77
2022/07/14 01:48:08;;;;;;;3.65;2.15;;;;;;;21.10;85.24;101295.09;4945286;29;20425;-77
2022/07/14 01:50:54;;;;;;;8.10;2.13;;;;;;;21.47;83.51;101296.69;4958445;29;20053;-76
2022/07/14 01:53:43;;;;;;;3.55;1.85;;;;;;;21.22;84.79;101302.44;4957992;28;20430;-76
2022/07/14 01:56:29;;;;;;;4.22;2.40;;;;;;;21.54;83.48;101309.63;4958952;29;20039;-77
2022/07/14 01:59:14;;;;;;;5.47;2.15;;;;;;;21.34;85.47;101311.63;4958553;29;20027;-77
2022/07/14 02:02:00;;;;;;;5.93;2.05;;;;;;;20.79;89.24;101308.22;4958896;29;20469;-76
2022/07/14 02:04:47;;;;;;;7.05;2.00;;;;;;;20.57;92.09;101312.88;4944262;29;20043;-76
2022/07/14 02:07:32;;;;;;;4.57;2.40;;;;;;;20.64;90.93;101318.75;4958148;29;20065;-76
2022/07/14 02:13:24;;;;;;;4.45;2.33;;;;;;;20.30;95.15;101326.66;4957906;28;20055;-77
2022/07/14 02:16:10;;;;;;;10.50;2.20;;;;;;;20.73;92.97;101319.16;4943814;29;20058;-77
2022/07/14 02:18:56;;;;;;;3.63;2.22;;;;;;;20.36;95.05;101323.69;4958734;29;20026;-77
2022/07/14 02:21:42;;;;;;;6.30;2.38;;;;;;;20.63;94.65;101315.25;4967772;29;20035;-75
2022/07/14 02:24:28;;;;;;;8.57;2.42;;;;;;;20.35;96.27;101325.50;4964095;28;20027;-76
2022/07/14 02:27:14;;;;;;;3.97;2.45;;;;;;;20.33;96.48;101326.53;4944589;29;20397;-76
2022/07/14 02:30:00;;;;;;;3.15;2.30;;;;;;;20.73;94.82;101331.66;4957436;29;20031;-76
2022/07/14 02:32:45;;;;;;;6.63;2.30;;;;;;;20.63;95.75;101335.69;4958524;29;20035;-77
2022/07/14 02:35:31;;;;;;;4.32;2.20;;;;;;;20.57;95.93;101331.50;4957097;29;20038;-77
2022/07/14 02:38:17;;;;;;;3.83;2.40;;;;;;;20.56;96.58;101337.78;4958194;29;20472;-76
2022/07/14 02:41:04;;;;;;;4.20;2.40;;;;;;;20.16;99.80;101332.63;4957757;29;20027;-76
2022/07/14 02:43:50;;;;;;;5.72;2.30;;;;;;;20.62;97.39;101336.63;4957139;28;20027;-76
2022/07/14 02:46:37;;;;;;;3.97;2.42;;;;;;;20.57;97.91;101334.19;4957794;29;20037;-76
2022/07/14 02:49:22;;;;;;;2.65;2.00;;;;;;;20.57;97.67;101339.50;4957190;29;20039;-77
2022/07/14 02:52:08;;;;;;;3.75;2.22;;;;;;;19.98;100.00;101332.59;4957269;29;20035;-77
2022/07/14 02:54:54;;;;;;;5.80;2.50;;;;;;;20.39;99.81;101329.75;4957669;28;20027;-77
2022/07/14 02:57:39;;;;;;;4.88;2.55;;;;;;;20.51;99.14;101333.59;4943925;29;20042;-76
2022/07/14 03:00:26;;;;;;;3.92;2.20;;;;;;;20.39;100.00;101331.53;4969337;29;20042;-77
2022/07/14 03:03:12;;;;;;;4.07;2.42;;;;;;;20.64;99.02;101340.94;4944155;28;20111;-77
2022/07/14 03:05:57;;;;;;;6.43;2.45;;;;;;;20.71;99.17;101336.16;4956778;29;20027;-76
2022/07/14 03:08:44;;;;;;;3.47;2.40;;;;;;;20.74;99.00;101339.53;4956885;29;20027;-76
2022/07/14 03:11:29;;;;;;;6.15;2.78;;;;;;;20.75;98.82;101343.94;4956617;29;20360;-77
2022/07/14 03:14:15;;;;;;;4.65;2.25;;;;;;;20.69;98.85;101346.03;4957545;28;20058;-76
2022/07/14 03:17:01;;;;;;;5.95;2.97;;;;;;;20.21;100.00;101345.75;4943526;29;20445;-77
2022/07/14 03:19:47;;;;;;;6.45;2.70;;;;;;;19.95;100.00;101348.69;4956981;29;20106;-77
2022/07/14 03:22:33;;;;;;;5.70;2.60;;;;;;;20.21;100.00;101343.06;4957002;29;20090;-76
2022/07/14 03:25:19;;;;;;;5.40;2.70;;;;;;;20.18;100.00;101343.22;4956475;28;20166;-76
2022/07/14 03:28:06;;;;;;;5.15;2.90;;;;;;;20.55;99.26;101348.50;4956707;29;20051;-76
2022/07/14 03:30:57;;;;;;;5.65;3.72;;;;;;;20.40;100.00;101350.09;4957590;29;20038;-75
2022/07/14 03:33:42;;;;;;;6.78;2.90;;;;;;;20.43;98.83;101351.75;4943495;28;20029;-75
2022/07/14 03:36:28;;;;;;;5.28;3.00;;;;;;;20.06;100.00;101351.72;4957184;29;20026;-76
2022/07/14 03:39:14;;;;;;;6.10;3.50;;;;;;;20.38;100.00;101359.09;4956995;29;20023;-77
2022/07/14 03:42:00;;;;;;;5.78;3.10;;;;;;;20.40;99.15;101362.53;4942767;29;20465;-77
2022/07/14 03:44:45;;;;;;;8.35;3.03;;;;;;;20.62;98.30;101363.25;4956922;28;20034;-78
2022/07/14 03:47:31;;;;;;;6.22;3.25;;;;;;;20.66;97.77;101371.00;4956496;29;20115;-77
2022/07/14 03:50:17;;;;;;;6.90;2.95;;;;;;;20.65;98.02;101376.44;4957266;29;20038;-76
2022/07/14 03:53:04;;;;;;;7.80;3.05;;;;;;;20.42;99.82;101374.88;4955996;29;20105;-76
2022/07/14 03:55:50;;;;;;;7.55;3.28;;;;;;;20.58;98.86;101375.00;4956284;29;20035;-77
2022/07/14 03:58:36;;;;;;;6.45;3.20;;;;;;;20.73;97.72;101379.59;4956565;29;20047;-76
2022/07/14 04:01:22;;;;;;;12.82;3.53;;;;;;;20.47;100.00;101386.16;4956476;29;20042;-76
2022/07/14 04:04:07;;;;;;;7.97;3.20;;;;;;;20.58;99.42;101383.81;4955975;28;20037;-76
2022/07/14 04:06:53;;;;;;;7.20;3.42;;;;;;;20.23;100.00;101391.75;4956166;29;20097;-77
2022/07/14 04:09:39;;;;;;;9.82;3.58;;;;;;;20.40;100.00;101391.81;4942302;29;20090;-77
2022/07/14 04:12:24;;;;;;;8.00;3.28;;;;;;;20.67;99.69;101396.72;4956351;29;20134;-76
2022/07/14 04:15:11;;;;;;;9.18;3.72;;;;;;;20.70;100.00;101398.38;4942358;29;20085;-76
2022/07/14 04:17:58;;;;;;;10.00;3.38;;;;;;;20.69;99.77;101401.97;4941593;29;20035;-76
2022/07/14 04:20:50;;;;;;;8.63;3.38;;;;;;;20.88;99.58;101409.00;4943100;29;20098;-76
2022/07/14 04:23:37;;;;;;;9.05;3.83;;;;;;;20.85;98.99;101414.47;4954750;28;20071;-76
2022/07/14 04:26:23;;;;;;;9.20;3.22;;;;;;;20.78;100.00;101413.03;4955448;29;20066;-77
2022/07/14 04:29:10;;;;;;;9.18;3.25;;;;;;;20.35;100.00;101412.47;4955564;29;20058;-75
2022/07/14 04:31:56;;;;;;;6.13;3.30;;;;;;;20.58;100.00;101406.94;4955689;29;20051;-77
2022/07/14 04:34:44;;;;;;;5.82;3.13;;;;;;;20.92;100.00;101410.59;4955458;28;20032;-76
2022/07/14 04:37:30;;;;;;;5.93;3.35;;;;;;;20.21;100.00;101412.25;4956309;29;20031;-77
2022/07/14 04:40:16;;;;;;;10.52;3.80;;;;;;;20.88;100.00;101409.00;4954736;29;20053;-77
2022/07/14 04:43:02;;;;;;;9.15;3.70;;;;;;;20.92;100.00;101410.59;4955872;29;20034;-76
2022/07/14 04:45:47;;;;;;;7.82;3.38;;;;;;;20.61;100.00;101407.66;4955508;29;20477;-77
2022/07/14 04:52:01;;;;;;;6.63;3.25;;;;;;;20.74;100.00;101411.44;4956087;29;20035;-78
2022/07/14 04:54:45;;;;;;;11.95;3.72;;;;;;;21.45;100.00;101419.44;4955788;28;20446;-78
2022/07/14 04:57:31;;;;;;;8.98;3.95;;;;;;;21.21;100.00;101415.34;4955360;29;20069;-77
2022/07/14 05:00:16;;;;;;;10.88;3.80;;;;;;;21.45;100.00;101419.44;4942769;29;20032;-76
2022/07/14 05:03:03;;;;;;;8.93;3.35;;;;;;;21.54;100.00;101415.44;4955434;29;20031;-76
2022/07/14 05:05:49;;;;;;;7.75;4.70;;;;;;;21.78;100.00;101419.53;4956095;28;20110;-76
2022/07/14 05:08:34;;;;;;;6.45;3.70;;;;;;;21.69;100.00;101419.97;4955975;29;20101;-77
2022/07/14 05:11:20;;;;;;;8.55;3.65;;;;;;;21.70;100.00;101421.72;4955016;29;20031;-77
2022/07/14 05:14:06;;;;;;;7.47;3.88;;;;;;;21.99;100.00;101418.41;4955774;28;20027;-77
2022/07/14 05:16:52;;;;;;;8.75;5.40;;;;;;;22.13;99.06;101419.38;4955008;29;20031;-77
2022/07/14 05:19:38;;;;;;;7.43;4.30;;;;;;;22.48;96.63;101422.84;4956325;28;20450;-76
2022/07/14 05:22:25;;;;;;;9.50;3.28;;;;;;;22.18;97.50;101428.00;4959398;29;20468;-77
2022/07/14 05:25:12;;;;;;;6.40;3.53;;;;;;;22.33;97.06;101427.19;4959735;28;20118;-76
2022/07/14 05:27:57;;;;;;;4.60;3.20;;;;;;;22.58;95.42;101435.59;4958697;29;20051;-77
2022/07/14 05:30:43;;;;;;;8.35;3.58;;;;;;;22.42;96.90;101425.81;4959938;28;20335;-76
2022/07/14 05:33:29;;;;;;;9.45;3.38;;;;;;;22.24;98.89;101430.34;4958377;28;20031;-76
2022/07/14 05:36:15;;;;;;;6.15;3.40;;;;;;;22.69;97.03;101424.31;4959599;28;20078;-76
2022/07/14 05:39:01;;;;;;;9.07;3.55;;;;;;;22.48;98.26;101422.84;4959239;29;20457;-76
2022/07/14 05:41:47;;;;;;;5.43;3.90;;;;;;;22.37;98.68;101415.38;4958877;29;20073;-77
2022/07/14 05:44:35;;;;;;;6.72;3.60;;;;;;;22.80;94.96;101421.91;4958160;29;20430;-76
2022/07/14 05:47:20;;;;;;;7.75;3.42;;;;;;;22.48;96.36;101417.50;4958684;29;20035;-76
2022/07/14 05:50:07;;;;;;;7.55;3.60;;;;;;;22.73;95.40;101420.50;4959421;28;20035;-76
2022/07/14 05:52:54;;;;;;;9.25;4.25;;;;;;;22.77;95.74;101420.25;4958139;29;20446;-76
2022/07/14 05:55:40;;;;;;;8.13;3.22;;;;;;;22.93;93.39;101415.78;4958692;29;20039;-77
2022/07/14 05:58:25;;;;;;;10.98;4.13;;;;;;;22.99;92.95;101426.09;4959172;28;20053;-75
2022/07/14 06:01:12;;;;;;;7.15;3.83;;;;;;;22.93;93.46;101426.47;4958507;29;20512;-77
2022/07/14 06:03:58;;;;;;;5.90;3.80;;;;;;;23.03;92.89;101427.63;4959200;28;20465;-76
2022/07/14 06:06:48;;;;;;;8.85;3.75;;;;;;;23.20;92.96;101427.56;4959170;28;20019;-76
2022/07/14 06:09:38;;;;;;;5.03;3.42;;;;;;;23.08;94.00;101430.91;4945101;29;20027;-76
2022/07/14 06:12:24;;;;;;;7.22;4.40;;;;;;;23.42;92.90;101422.69;4958838;29;20042;-76
2022/07/14 06:15:10;;;;;;;7.10;4.13;;;;;;;23.55;93.94;101413.94;4958635;28;20038;-77
2022/07/14 06:17:56;;;;;;;9.15;4.20;;;;;;;23.58;92.71;101424.47;4958262;29;20473;-75
2022/07/14 06:20:41;;;;;;;8.68;4.40;;;;;;;23.64;92.52;101427.63;4957850;29;20035;-77
2022/07/14 06:23:27;;;;;;;5.65;3.90;;;;;;;23.70;93.45;101424.56;4958501;28;20019;-77
2022/07/14 06:26:13;;;;;;;8.68;4.50;;;;;;;23.82;92.59;101429.19;4944189;29;20089;-76
2022/07/14 06:28:59;;;;;;;10.45;5.68;;;;;;;24.15;90.40;101428.97;4957404;29;20106;-76
2022/07/14 06:31:45;;;;;;;8.20;5.00;;;;;;;23.87;92.28;101421.72;4957059;28;20042;-77
2022/07/14 06:34:30;;;;;;;9.27;4.18;;;;;;;23.69;94.29;101421.97;4957786;28;20374;-76
2022/07/14 06:37:16;;;;;;;7.43;4.50;;;;;;;24.13;93.41;101430.84;4958095;29;20438;-76
2022/07/14 06:40:04;;;;;;;9.55;4.60;;;;;;;24.29;89.66;101431.63;4957206;29;20386;-76
2022/07/14 06:42:50;;;;;;;6.90;4.60;;;;;;;24.02;90.52;101422.66;4957829;29;20027;-76
2022/07/14 06:45:35;;;;;;;5.82;4.15;;;;;;;24.02;91.54;101431.53;4957817;29;20045;-76
2022/07/14 06:48:23;;;;;;;7.45;4.50;;;;;;;24.28;90.84;101422.75;4944262;29;20146;-76
2022/07/14 06:51:09;;;;;;;8.38;4.50;;;;;;;24.38;88.63;101417.66;4957310;29;20038;-76
2022/07/14 06:53:55;;;;;;;8.50;4.80;;;;;;;23.94;93.34;101419.59;4956965;28;20517;-77
2022/07/14 06:56:41;;;;;;;8.98;4.07;;;;;;;24.43;90.33;101427.13;4956811;29;20366;-77
2022/07/14 06:59:28;;;;;;;9.15;4.40;;;;;;;24.67;89.22;101425.59;4956834;29;20023;-77
2022/07/14 07:02:13;;;;;;;8.55;4.63;;;;;;;24.41;90.89;101404.06;4957074;29;20091;-76
2022/07/14 07:08:05;;;;;;;8.63;4.63;;;;;;;24.78;88.69;101415.03;4957416;29;20390;-76
2022/07/14 07:10:51;;;;;;;7.80;4.32;;;;;;;24.75;88.24;101415.22;4959691;29;20058;-77
2022/07/14 07:13:37;;;;;;;7.90;4.40;;;;;;;25.26;85.22;101418.97;4956520;28;20035;-76
2022/07/14 07:16:25;;;;;;;11.10;4.47;;;;;;;25.29;85.24;101413.44;4956050;29;20039;-77
2022/07/14 07:19:10;;;;;;;9.15;4.13;;;;;;;25.47;84.58;101414.91;4956759;29;20062;-77
2022/07/14 07:21:57;;;;;;;9.60;4.15;;;;;;;25.70;82.97;101414.16;4955759;29;20046;-77
2022/07/14 07:24:42;;;;;;;6.85;3.85;;;;;;;25.64;82.32;101406.53;4956730;28;20102;-76
2022/07/14 07:27:28;;;;;;;10.00;4.20;;;;;;;26.18;79.32;101413.44;4956275;29;20174;-76
2022/07/14 07:30:14;;;;;;;7.50;4.20;;;;;;;26.20;79.22;101414.22;4956583;29;20039;-77
2022/07/14 07:33:00;;;;;;;12.63;4.55;;;;;;;26.38;77.91;101411.06;4957281;29;20031;-78
2022/07/14 07:35:46;;;;;;;9.05;4.40;;;;;;;26.78;76.03;101407.22;4957576;29;20086;-77
2022/07/14 07:38:32;;;;;;;11.00;4.93;;;;;;;26.63;76.57;101418.22;4943417;29;20090;-76
2022/07/14 07:41:17;;;;;;;10.50;4.60;;;;;;;26.25;79.33;101406.69;4956445;29;20378;-77
2022/07/14 07:44:03;;;;;;;8.80;4.90;;;;;;;26.70;77.11;101408.75;4956724;28;20023;-77
2022/07/14 07:46:49;;;;;;;9.00;4.20;;;;;;;26.35;76.39;101405.91;4957154;29;20373;-77
2022/07/14 07:49:35;;;;;;;7.70;4.32;;;;;;;27.05;74.06;101396.25;4957486;29;20070;-77
2022/07/14 07:52:21;;;;;;;6.53;4.28;;;;;;;27.55;72.30;101390.59;4956437;29;20032;-76
2022/07/14 07:55:10;;;;;;;9.88;4.20;;;;;;;27.39;71.96;101393.63;4956369;28;20096;-77
2022/07/14 07:57:56;;;;;;;8.00;3.95;;;;;;;27.82;68.38;101395.69;4955310;29;20114;-77
2022/07/14 08:00:42;;;;;;;11.98;3.35;;;;;;;27.31;71.16;101392.47;4956474;29;20031;-77
2022/07/14 08:03:29;;;;;;;6.15;3.70;;;;;;;27.93;67.66;101393.91;4956619;28;20019;-78
2022/07/14 08:06:14;;;;;;;7.97;3.58;;;;;;;28.81;64.63;101396.53;4956399;29;20098;-77
2022/07/14 08:09:00;;;;;;;7.80;3.90;;;;;;;29.14;59.90;101387.53;4956447;29;20039;-78
2022/07/14 08:11:46;;;;;;;7.50;4.15;;;;;;;28.93;61.03;101387.44;4956066;29;20031;-77
2022/07/14 08:14:51;;;;;;;7.03;4.15;;;;;;;29.43;60.51;101394.88;4956336;28;20038;-77
2022/07/14 08:17:37;;;;;;;6.05;3.70;;;;;;;29.67;58.36;101387.41;4955633;29;20462;-77
2022/07/14 08:20:23;;;;;;;12.02;3.58;;;;;;;29.27;60.03;101389.06;4942831;29;20114;-76
2022/07/14 08:23:09;;;;;;;26.27;12.60;;;;;;;30.08;56.56;101386.47;4956708;28;20029;-77
2022/07/14 08:25:55;;;;;;;9.07;3.42;;;;;;;30.57;53.92;101383.84;4955170;29;20133;-77
2022/07/14 08:28:40;;;;;;;9.23;5.47;;;;;;;30.06;53.44;101383.91;4956274;29;20453;-76
2022/07/14 08:31:26;;;;;;;8.43;2.88;;;;;;;30.99;51.57;101394.38;4956258;29;20035;-75
2022/07/14 08:34:12;;;;;;;4.78;2.95;;;;;;;30.32;52.37;101385.22;4955922;28;20102;-76
2022/07/14 08:37:01;;;;;;;7.15;3.05;;;;;;;29.88;53.88;101381.97;4956185;29;20027;-74
2022/07/14 08:39:46;;;;;;;5.15;2.83;;;;;;;30.77;52.67;101386.50;4956146;29;20042;-74
2022/07/14 08:42:32;;;;;;;5.70;2.60;;;;;;;30.90;50.94;101378.97;4956471;29;20031;-75
2022/07/14 08:45:21;;;;;;;5.45;2.80;;;;;;;30.98;50.79;101381.84;4954829;28;20440;-75
2022/07/14 08:48:09;;;;;;;8.32;2.55;;;;;;;31.25;49.07;101378.44;4956260;29;20078;-75
2022/07/14 08:50:56;;;;;;;5.53;2.60;;;;;;;29.98;52.01;101377.50;4956184;28;20123;-75
2022/07/14 08:53:43;;;;;;;9.25;2.90;;;;;;;31.16;50.18;101374.72;4955614;28;20355;-75
2022/07/14 08:56:30;;;;;;;6.78;2.80;;;;;;;31.63;47.32;101373.00;4959858;29;20027;-75
2022/07/14 08:59:15;;;;;;;7.72;2.70;;;;;;;30.98;48.48;101371.00;4958400;29;20045;-75
2022/07/14 09:02:01;;;;;;;10.90;2.53;;;;;;;31.22;48.52;101362.47;4946187;29;20033;-76
2022/07/14 09:04:48;;;;;;;4.95;2.70;;;;;;;31.64;48.29;101368.44;4959553;28;20019;-76
2022/07/14 09:07:36;;;;;;;5.68;2.85;;;;;;;31.63;48.80;101366.72;4958988;29;20039;-74
2022/07/14 09:10:27;;;;;;;8.55;2.97;;;;;;;31.76;45.66;101364.53;4944821;29;20039;-74
2022/07/14 09:13:15;;;;;;;6.47;3.28;;;;;;;32.02;45.37;101363.78;4959422;28;20063;-75
2022/07/14 09:16:16;;;;;;;9.77;3.25;;;;;;;31.55;45.29;101351.19;4946227;29;20027;-75
2022/07/14 09:19:13;;;;;;;4.22;2.80;;;;;;;31.78;44.00;101357.16;4959900;29;20102;-76
2022/07/14 09:22:01;;;;;;;5.75;3.25;;;;;;;32.30;43.44;101356.56;4959242;29;20471;-75
2022/07/14 09:24:53;;;;;;;8.52;3.10;;;;;;;31.42;44.80;101348.78;4959406;28;20035;-75
2022/07/14 09:27:40;;;;;;;9.85;3.38;;;;;;;31.68;45.33;101350.88;4958418;29;20046;-76
2022/07/14 09:30:27;;;;;;;8.57;3.50;;;;;;;31.28;44.59;101340.25;4958199;29;20042;-75
2022/07/14 09:33:12;;;;;;;7.18;3.00;;;;;;;31.64;42.21;101341.31;4946035;28;20162;-76
2022/07/14 09:35:58;;;;;;;10.10;2.70;;;;;;;31.73;42.27;101340.47;4958590;29;20031;-75
2022/07/14 09:38:47;;;;;;;5.50;2.75;;;;;;;32.16;41.93;101338.03;4958404;29;20035;-75
2022/07/14 09:41:47;;;;;;;10.95;2.58;;;;;;;32.48;40.78;101338.47;4944767;29;20114;-75
2022/07/14 09:44:33;;;;;;;4.05;2.40;;;;;;;31.90;41.36;101337.00;4959034;28;20361;-74
2022/07/14 09:47:19;;;;;;;6.68;2.47;;;;;;;31.95;41.37;101326.56;4957808;29;20059;-76
2022/07/14 09:50:05;;;;;;;5.82;2.60;;;;;;;32.28;39.92;101323.28;4958315;29;20061;-76
2022/07/14 09:52:51;;;;;;;5.43;2.03;;;;;;;32.60;37.54;101323.69;4957464;29;20023;-75
2022/07/14 09:55:39;;;;;;;3.05;2.15;;;;;;;32.27;37.10;101316.16;4958584;29;20028;-75
2022/07/14 09:58:27;;;;;;;4.28;2.25;;;;;;;32.18;37.35;101314.34;4945084;29;20035;-75
2022/07/14 10:01:18;;;;;;;3.33;1.88;;;;;;;32.34;36.88;101309.16;4958530;29;20042;-74
2022/07/14 10:04:04;;;;;;;10.82;2.95;;;;;;;32.20;38.52;101309.59;4957392;28;20497;-75
2022/07/14 10:06:50;;;;;;;4.60;2.40;;;;;;;32.18;34.58;101317.06;4945164;29;20031;-76
2022/07/14 10:09:38;;;;;;;2.90;2.10;;;;;;;32.82;32.74;101318.69;4958092;29;20110;-75
2022/07/14 10:12:26;;;;;;;3.20;1.80;;;;;;;32.15;33.99;101312.78;4958447;29;20027;-74
2022/07/14 10:15:13;;;;;;;3.17;2.20;;;;;;;32.39;34.26;101295.97;4957789;28;20482;-75
2022/07/14 10:18:03;;;;;;;12.50;8.60;;;;;;;32.94;33.97;101295.72;4958382;29;20038;-75
2022/07/14 10:20:51;;;;;;;4.55;2.72;;;;;;;32.80;35.39;101289.94;4958027;29;20027;-75
2022/07/14 10:23:37;;;;;;;6.88;2.10;;;;;;;32.30;34.05;101286.03;4957924;28;20038;-74
2022/07/14 10:26:24;;;;;;;4.60;2.25;;;;;;;32.76;34.27;101285.84;4957423;29;20055;-75
2022/07/14 10:29:09;;;;;;;5.88;2.00;;;;;;;32.63;34.12;101278.09;4957955;29;20028;-75
2022/07/14 10:32:18;;;;;;;3.13;2.00;;;;;;;32.80;34.13;101279.09;4957095;29;20050;-74
2022/07/14 10:35:22;;;;;;;4.05;1.60;;;;;;;32.53;33.22;101276.44;4957565;28;20028;-74
2022/07/14 10:38:10;;;;;;;4.30;1.83;;;;;;;31.92;33.53;101275.34;4957616;29;20117;-74
2022/07/14 10:41:04;;;;;;;4.30;1.80;;;;;;;31.99;33.30;101269.19;4956862;29;20105;-74
2022/07/14 10:44:16;;;;;;;4.68;1.48;;;;;;;32.02;32.99;101266.16;4957179;28;20118;-74
2022/07/14 10:47:09;;;;;;;7.30;2.05;;;;;;;32.42;32.71;101266.66;4942828;29;20043;-74
2022/07/14 10:50:04;;;;;;;7.63;5.35;;;;;;;32.12;32.74;101256.13;4957229;29;20090;-74
2022/07/14 10:53:05;;;;;;;1.92;1.30;;;;;;;32.18;32.82;101262.81;4956464;29;20032;-74
2022/07/14 10:55:51;;;;;;;2.70;2.00;;;;;;;32.58;32.44;101253.25;4957725;29;20294;-75
2022/07/14 10:58:38;;;;;;;3.25;2.10;;;;;;;32.39;33.09;101255.28;4957435;29;20127;-75
2022/07/14 11:01:24;;;;;;;4.05;1.70;;;;;;;32.14;32.92;101248.69;4957503;29;20046;-75
2022/07/14 11:04:10;;;;;;;7.82;2.17;;;;;;;33.02;32.50;101240.66;4956969;28;20019;-74
2022/07/14 11:07:35;;;;;;;4.10;1.90;;;;;;;33.05;31.75;101241.16;4957332;29;20035;-75
2022/07/14 11:10:21;;;;;;;6.20;1.80;;;;;;;33.12;32.07;101239.53;4956361;29;20034;-74
2022/07/14 11:13:09;;;;;;;7.70;3.60;;;;;;;33.09;32.13;101241.69;4956240;29;20028;-75
2022/07/14 11:16:02;;;;;;;6.10;1.90;;;;;;;32.29;32.91;101235.44;4955940;29;20041;-75
2022/07/14 11:19:24;;;;;;;4.07;2.28;;;;;;;32.88;31.96;101233.03;4944282;28;20461;-76
2022/07/14 11:22:11;;;;;;;3.50;1.70;;;;;;;32.27;31.67;101238.34;4942929;29;20098;-75
2022/07/14 11:24:58;;;;;;;5.68;1.92;;;;;;;32.06;32.41;101224.19;4956573;28;20111;-74
2022/07/14 11:27:48;;;;;;;4.03;3.45;;;;;;;33.35;32.44;101231.75;4955870;29;20055;-75
2022/07/14 11:30:35;;;;;;;6.28;2.05;;;;;;;33.48;30.76;101222.16;4956684;29;20035;-74
2022/07/14 11:33:32;;;;;;;3.65;1.80;;;;;;;33.03;31.26;101231.47;4956600;28;20035;-75
2022/07/14 11:36:18;;;;;;;3.97;1.80;;;;;;;33.03;31.51;101223.34;4956949;29;20414;-75
2022/07/14 11:39:16;;;;;;;1.70;1.27;;;;;;;33.34;31.50;101228.16;4956466;29;20046;-74
2022/07/14 11:42:09;;;;;;;4.45;1.65;;;;;;;33.46;30.89;101223.28;4955633;29;20146;-75
2022/07/14 11:44:55;;;;;;;3.08;1.40;;;;;;;33.33;31.01;101226.47;4957036;28;20044;-74
2022/07/14 11:47:41;;;;;;;3.05;1.80;;;;;;;33.69;30.99;101227.16;4942056;29;20069;-74
2022/07/14 11:50:27;;;;;;;3.08;1.77;;;;;;;33.80;30.54;101221.44;4956673;29;20051;-74
2022/07/14 11:53:15;;;;;;;3.65;1.67;;;;;;;33.86;30.51;101218.94;4955996;28;20105;-75
2022/07/14 11:56:02;;;;;;;2.75;1.63;;;;;;;33.94;30.42;101210.81;4956191;29;20419;-75
2022/07/14 11:58:48;;;;;;;4.32;1.90;;;;;;;34.39;30.13;101213.19;4956553;29;20031;-75
2022/07/14 12:01:36;;;;;;;3.05;1.60;;;;;;;34.06;29.84;101216.78;4956454;29;20023;-75
2022/07/14 12:04:22;;;;;;;5.20;1.58;;;;;;;34.01;29.86;101213.72;4956005;28;20082;-76
2022/07/14 12:07:08;;;;;;;4.70;1.50;;;;;;;34.32;29.85;101206.72;4956562;29;20035;-75
2022/07/14 12:09:54;;;;;;;4.15;1.50;;;;;;;34.30;29.43;101200.53;4943157;29;20063;-75
2022/07/14 12:12:41;;;;;;;6.18;1.80;;;;;;;33.85;29.37;101203.66;4955903;29;20074;-74
2022/07/14 12:15:27;;;;;;;3.75;1.40;;;;;;;34.11;29.73;101198.13;4955857;28;20035;-75
2022/07/14 12:18:13;;;;;;;3.35;1.67;;;;;;;33.80;30.16;101195.13;4955888;29;20027;-74
2022/07/14 12:21:02;;;;;;;4.07;2.00;;;;;;;33.99;29.78;101199.47;4955572;29;20023;-75
2022/07/14 12:23:55;;;;;;;3.40;2.20;;;;;;;34.24;29.33;101185.72;4955392;28;20019;-74
2022/07/14 12:26:41;;;;;;;6.43;1.92;;;;;;;34.64;29.00;101185.78;4955239;29;20066;-75
2022/07/14 12:29:27;;;;;;;3.30;1.67;;;;;;;33.76;29.61;101179.28;4954140;29;20457;-74
2022/07/14 12:32:15;;;;;;;5.35;1.73;;;;;;;33.71;29.35;101173.50;4956080;29;20035;-75
2022/07/14 12:35:01;;;;;;;2.17;1.58;;;;;;;34.06;29.39;101170.56;4955455;28;20347;-75
2022/07/14 12:37:52;;;;;;;2.28;1.42;;;;;;;34.46;28.99;101171.50;4956842;29;20035;-75
2022/07/14 12:40:39;;;;;;;4.95;1.60;;;;;;;34.51;28.76;101165.56;4956163;29;20031;-75
2022/07/14 12:43:26;;;;;;;2.40;1.42;;;;;;;34.11;28.74;101162.75;4955711;28;20106;-75
2022/07/14 12:46:18;;;;;;;2.63;1.92;;;;;;;34.44;28.79;101154.47;4955419;29;20028;-74
2022/07/14 12:49:06;;;;;;;2.38;2.10;;;;;;;34.57;28.68;101159.44;4943279;29;20050;-75
2022/07/14 12:51:54;;;;;;;4.20;1.60;;;;;;;33.72;29.11;101165.19;4955533;29;20401;-74
2022/07/14 12:54:41;;;;;;;5.57;2.10;;;;;;;34.22;28.58;101154.25;4956214;28;20038;-74
2022/07/14 12:57:26;;;;;;;7.53;2.40;;;;;;;34.60;28.46;101149.03;4955477;29;20023;-75
2022/07/14 13:00:13;;;;;;;3.05;1.70;;;;;;;34.48;27.96;101152.28;4955568;29;20087;-75
2022/07/14 13:03:14;;;;;;;6.72;2.20;;;;;;;34.18;28.49;101148.31;4955784;29;20061;-75
2022/07/14 13:06:00;;;;;;;4.07;1.95;;;;;;;34.37;28.04;101147.16;4955516;29;20351;-76